Time;durP1;ratioP1;P1;durP2;ratioP2;P2;SDS_P1;SDS_P2;PMS_P1;PMS_P2;Temp;Humidity;BMP_temperature;BMP_pressure;BME280_temperature;BME280_humidity;BME280_pressure;Samples;Min_cycle;Max_cycle;Signal;HPM_P1;HPM_P2
2021/12/08 00:00:28;;;;;;;4.53;1.67;;;3.70;99.90;;;;;;5052948;28;20027;-50
2021/12/08 00:02:55;;;;;;;5.50;1.60;;;3.80;99.90;;;;;;5052850;28;20025;-47
2021/12/08 00:05:22;;;;;;;2.55;1.30;;;3.80;99.90;;;;;;5052833;28;20035;-52
2021/12/08 00:07:49;;;;;;;6.32;1.75;;;3.80;99.90;;;;;;5052735;28;20036;-47
2021/12/08 00:10:39;;;;;;;4.97;1.38;;;3.90;99.90;;;;;;5054842;28;20025;-52
2021/12/08 00:13:09;;;;;;;4.70;1.63;;;3.90;99.90;;;;;;5053796;28;20037;-50
2021/12/08 00:15:34;;;;;;;4.38;1.30;;;3.90;99.90;;;;;;5053849;28;20078;-49
2021/12/08 00:18:03;;;;;;;3.67;2.13;;;3.90;99.90;;;;;;5052602;28;20017;-47
2021/12/08 00:20:31;;;;;;;3.78;1.23;;;3.90;99.90;;;;;;5053153;28;20018;-50
2021/12/08 00:22:58;;;;;;;5.65;1.67;;;4.10;99.90;;;;;;5053595;28;20017;-49
2021/12/08 00:25:24;;;;;;;4.78;1.55;;;4.30;99.90;;;;;;5053622;28;20100;-52
2021/12/08 00:27:50;;;;;;;6.68;2.10;;;4.20;99.90;;;;;;5053642;28;20052;-49
2021/12/08 00:30:16;;;;;;;3.30;1.20;;;4.10;99.90;;;;;;5052347;28;20060;-47
2021/12/08 00:32:43;;;;;;;3.63;1.58;;;3.90;99.90;;;;;;5052216;28;20082;-51
2021/12/08 00:35:11;;;;;;;2.25;1.73;;;3.90;99.90;;;;;;5052160;28;20021;-48
2021/12/08 00:37:37;;;;;;;6.57;1.85;;;3.90;99.90;;;;;;5053506;28;20025;-50
2021/12/08 00:40:05;;;;;;;2.95;1.27;;;4.00;99.90;;;;;;5053470;28;20147;-54
2021/12/08 00:42:31;;;;;;;3.70;1.52;;;4.10;99.90;;;;;;5051981;28;20039;-48
2021/12/08 00:44:59;;;;;;;6.95;1.77;;;4.20;99.90;;;;;;5053402;28;20104;-50
2021/12/08 00:47:25;;;;;;;3.38;1.70;;;4.10;99.90;;;;;;5053310;28;20466;-50
2021/12/08 00:49:51;;;;;;;5.45;1.70;;;4.10;99.90;;;;;;5053092;28;20047;-52
2021/12/08 00:52:17;;;;;;;11.18;1.58;;;4.10;99.90;;;;;;5053272;28;20025;-51
2021/12/08 00:54:43;;;;;;;5.20;1.27;;;4.00;99.90;;;;;;5051754;28;20033;-51
2021/12/08 00:57:09;;;;;;;4.28;1.25;;;3.90;99.90;;;;;;5053222;28;20024;-50
2021/12/08 00:59:35;;;;;;;4.32;1.38;;;3.90;99.90;;;;;;5053186;28;20098;-51
2021/12/08 01:02:02;;;;;;;3.55;1.35;;;3.80;99.90;;;;;;5051911;28;20090;-52
2021/12/08 01:04:30;;;;;;;2.65;1.48;;;3.80;99.90;;;;;;5052921;28;20021;-52
2021/12/08 01:06:56;;;;;;;1.88;1.10;;;3.70;99.90;;;;;;5052964;28;20025;-53
2021/12/08 01:09:21;;;;;;;5.85;1.30;;;3.90;99.90;;;;;;5051934;28;20043;-52
2021/12/08 01:11:48;;;;;;;5.95;1.48;;;4.00;99.90;;;;;;5051777;28;20024;-47
2021/12/08 01:14:15;;;;;;;11.23;1.80;;;4.00;99.90;;;;;;5053296;28;20021;-48
2021/12/08 01:16:41;;;;;;;3.42;1.60;;;4.00;99.90;;;;;;5053152;28;20468;-48
2021/12/08 01:19:07;;;;;;;4.75;1.20;;;3.80;99.90;;;;;;5051841;28;20106;-50
2021/12/08 01:21:33;;;;;;;7.60;1.45;;;3.80;99.90;;;;;;5051757;28;20049;-48
2021/12/08 01:23:59;;;;;;;7.55;2.22;;;3.70;99.90;;;;;;5051646;28;20017;-49
2021/12/08 01:26:26;;;;;;;3.50;1.30;;;3.50;99.90;;;;;;5051716;28;20136;-50
2021/12/08 01:28:55;;;;;;;5.97;1.30;;;3.60;99.90;;;;;;5051647;28;20036;-48
2021/12/08 01:31:21;;;;;;;6.00;2.33;;;3.60;99.90;;;;;;5051954;28;20029;-52
2021/12/08 01:33:47;;;;;;;2.22;1.10;;;3.50;99.90;;;;;;5057077;28;20027;-48
2021/12/08 01:36:13;;;;;;;2.78;1.48;;;3.60;99.90;;;;;;5055472;28;20029;-49
2021/12/08 01:38:39;;;;;;;5.30;1.70;;;3.40;99.90;;;;;;5055500;28;20024;-50
2021/12/08 01:41:07;;;;;;;5.05;1.50;;;3.20;99.90;;;;;;5056782;28;20395;-51
2021/12/08 01:46:22;;;;;;;4.32;1.42;;;3.10;99.90;;;;;;5057331;28;20039;-49
2021/12/08 01:48:47;;;;;;;6.78;1.48;;;3.10;99.90;;;;;;5055989;28;20087;-47
2021/12/08 01:51:17;;;;;;;3.60;1.45;;;3.20;99.90;;;;;;5056573;28;20108;-52
2021/12/08 01:53:50;;;;;;;6.60;1.63;;;3.20;99.90;;;;;;5056553;28;20102;-50
2021/12/08 01:56:17;;;;;;;3.55;1.33;;;3.30;99.90;;;;;;5056823;28;20029;-47
2021/12/08 01:58:43;;;;;;;3.72;1.50;;;3.30;99.90;;;;;;5055766;28;20027;-49
2021/12/08 02:01:11;;;;;;;2.28;1.40;;;3.20;99.90;;;;;;5055101;28;20108;-49
2021/12/08 02:03:38;;;;;;;8.60;1.65;;;3.00;99.90;;;;;;5056538;28;20021;-47
2021/12/08 02:06:07;;;;;;;5.55;1.95;;;2.80;99.90;;;;;;5055922;28;20025;-50
2021/12/08 02:08:34;;;;;;;3.53;1.80;;;2.60;99.90;;;;;;5055310;28;20021;-47
2021/12/08 02:11:02;;;;;;;8.73;1.95;;;2.40;99.90;;;;;;5056222;28;20498;-47
2021/12/08 02:13:31;;;;;;;5.75;2.10;;;2.30;99.90;;;;;;5056101;28;20031;-49
2021/12/08 02:15:59;;;;;;;5.75;1.83;;;2.20;99.90;;;;;;5054755;28;20028;-49
2021/12/08 02:18:25;;;;;;;3.22;1.50;;;2.10;99.90;;;;;;5056087;28;20032;-51
2021/12/08 02:20:50;;;;;;;3.97;2.00;;;2.10;99.90;;;;;;5054745;28;20021;-48
2021/12/08 02:23:18;;;;;;;4.13;1.88;;;2.10;99.90;;;;;;5055926;28;20060;-51
2021/12/08 02:25:45;;;;;;;4.68;2.10;;;2.00;99.90;;;;;;5054719;28;20074;-47
2021/12/08 02:28:11;;;;;;;4.65;2.40;;;2.00;99.90;;;;;;5056175;28;20161;-49
2021/12/08 02:30:50;;;;;;;5.00;2.47;;;2.00;99.90;;;;;;5055798;28;20471;-50
2021/12/08 02:47:53;;;;;;;8.02;2.35;;;1.90;99.90;;;;;;5056153;28;20525;-51
2021/12/08 02:50:28;;;;;;;5.82;2.10;;;2.00;99.90;;;;;;5055449;28;20029;-48
2021/12/08 02:52:57;;;;;;;8.85;2.60;;;2.00;99.90;;;;;;5055033;28;20025;-49
2021/12/08 02:55:27;;;;;;;3.97;2.40;;;2.10;99.90;;;;;;5055135;28;20031;-51
2021/12/08 02:57:53;;;;;;;4.50;2.42;;;2.10;99.90;;;;;;5054997;28;20021;-46
2021/12/08 03:00:24;;;;;;;4.90;2.55;;;2.10;99.90;;;;;;5055260;28;20028;-49
2021/12/08 03:02:52;;;;;;;6.35;2.60;;;2.10;99.90;;;;;;5055215;28;20021;-47
2021/12/08 03:05:18;;;;;;;9.77;2.85;;;2.00;99.90;;;;;;5055179;28;20052;-50
2021/12/08 03:07:44;;;;;;;5.10;2.47;;;2.00;99.90;;;;;;5055143;28;20024;-49
2021/12/08 03:10:12;;;;;;;4.28;2.53;;;2.10;99.90;;;;;;5054141;28;20025;-47
2021/12/08 03:12:40;;;;;;;3.33;2.28;;;2.10;99.90;;;;;;5054269;28;20112;-50
2021/12/08 03:15:06;;;;;;;5.05;2.20;;;2.10;99.90;;;;;;5053648;28;20033;-47
2021/12/08 03:17:34;;;;;;;3.25;2.17;;;2.20;99.90;;;;;;5053656;28;20025;-47
2021/12/08 03:19:59;;;;;;;5.00;2.95;;;2.20;99.90;;;;;;5053690;28;20388;-51
2021/12/08 03:22:25;;;;;;;5.43;2.67;;;2.30;99.90;;;;;;5054816;28;20025;-48
2021/12/08 03:24:52;;;;;;;6.18;2.40;;;2.40;99.90;;;;;;5055109;28;20151;-49
2021/12/08 03:27:24;;;;;;;6.38;2.47;;;2.40;99.90;;;;;;5053566;28;20033;-50
2021/12/08 03:29:56;;;;;;;4.60;2.38;;;2.40;99.90;;;;;;5055108;28;20052;-52
2021/12/08 03:32:36;;;;;;;5.75;2.45;;;2.50;99.90;;;;;;5054774;28;20104;-51
2021/12/08 03:35:03;;;;;;;3.63;1.92;;;2.60;99.90;;;;;;5054659;28;20163;-51
2021/12/08 03:37:34;;;;;;;3.97;1.92;;;2.70;99.90;;;;;;5054616;28;20021;-51
2021/12/08 03:40:04;;;;;;;3.47;1.70;;;2.90;99.90;;;;;;5053409;28;20021;-47
2021/12/08 03:42:34;;;;;;;4.35;1.63;;;2.90;99.90;;;;;;5054674;28;20021;-50
2021/12/08 03:45:02;;;;;;;4.30;1.80;;;3.00;99.90;;;;;;5053188;28;20029;-51
2021/12/08 03:47:29;;;;;;;8.52;2.55;;;2.90;99.90;;;;;;5054379;28;20071;-48
2021/12/08 03:49:58;;;;;;;2.65;2.05;;;2.80;99.90;;;;;;5053931;28;20035;-50
2021/12/08 03:52:24;;;;;;;6.50;1.92;;;3.00;99.90;;;;;;5052952;28;20032;-50
2021/12/08 03:54:50;;;;;;;5.35;2.05;;;3.10;99.90;;;;;;5053309;28;20029;-51
2021/12/08 03:57:16;;;;;;;3.92;2.00;;;3.10;99.90;;;;;;5053723;28;20021;-49
2021/12/08 03:59:41;;;;;;;5.07;2.13;;;3.30;99.90;;;;;;5052825;28;20357;-52
2021/12/08 04:02:07;;;;;;;4.20;2.25;;;3.20;99.90;;;;;;5052969;28;20075;-52
2021/12/08 04:04:42;;;;;;;3.03;2.15;;;3.00;99.90;;;;;;5052973;28;20089;-49
2021/12/08 04:07:08;;;;;;;4.97;2.58;;;3.00;99.90;;;;;;5053628;28;20017;-51
2021/12/08 04:09:40;;;;;;;7.15;2.55;;;3.00;99.90;;;;;;5054254;28;20028;-54
2021/12/08 04:12:11;;;;;;;4.10;2.33;;;3.00;99.90;;;;;;5053928;28;20040;-57
2021/12/08 04:14:41;;;;;;;5.07;2.30;;;3.00;99.90;;;;;;5052585;28;20021;-58
2021/12/08 04:17:11;;;;;;;3.20;2.05;;;3.30;99.90;;;;;;5052599;28;20025;-54
2021/12/08 04:19:38;;;;;;;6.55;2.42;;;3.30;99.90;;;;;;5052598;28;20021;-55
2021/12/08 04:22:09;;;;;;;4.05;2.55;;;3.40;99.90;;;;;;5052520;28;20021;-57
2021/12/08 04:24:36;;;;;;;4.10;1.83;;;3.20;99.90;;;;;;5052456;28;20029;-56
2021/12/08 04:27:13;;;;;;;10.40;2.95;;;3.00;99.90;;;;;;5052365;28;20491;-56
2021/12/08 04:29:41;;;;;;;5.20;2.78;;;2.90;99.90;;;;;;5053753;28;20028;-52
2021/12/08 04:32:08;;;;;;;7.43;3.08;;;2.60;99.90;;;;;;5053513;28;20479;-58
2021/12/08 04:34:38;;;;;;;5.35;3.00;;;2.50;99.90;;;;;;5053411;28;20067;-58
2021/12/08 04:37:16;;;;;;;7.63;3.25;;;2.30;99.90;;;;;;5052284;28;20089;-56
2021/12/08 04:42:23;;;;;;;3.80;2.83;;;2.10;99.90;;;;;;5053790;28;20024;-57
2021/12/08 04:44:56;;;;;;;7.97;4.15;;;2.10;99.90;;;;;;5053744;28;20029;-58
2021/12/08 04:47:34;;;;;;;5.78;3.28;;;2.10;99.90;;;;;;5053421;28;20017;-58
2021/12/08 04:54:01;;;;;;;10.63;2.65;;;2.30;99.90;;;;;;5059835;28;20096;-58
2021/12/08 05:01:26;;;;;;;7.75;2.75;;;2.60;99.90;;;;;;5053237;28;20108;-58
2021/12/08 05:04:26;;;;;;;4.32;2.60;;;2.50;99.90;;;;;;5051893;28;20086;-55
2021/12/08 05:07:15;;;;;;;4.55;2.42;;;2.60;99.90;;;;;;5053208;28;20021;-53
2021/12/08 05:09:43;;;;;;;8.40;3.08;;;2.60;99.90;;;;;;5053213;28;20024;-55
2021/12/08 05:12:16;;;;;;;9.18;3.28;;;2.90;99.90;;;;;;5053128;28;20060;-55
2021/12/08 05:14:53;;;;;;;8.15;3.13;;;2.90;99.90;;;;;;5052954;28;20025;-55
2021/12/08 05:17:29;;;;;;;5.07;2.90;;;2.90;99.90;;;;;;5053160;28;20021;-57
2021/12/08 05:19:59;;;;;;;10.70;3.03;;;2.90;99.90;;;;;;5051778;28;20017;-58
2021/12/08 05:22:33;;;;;;;3.70;2.65;;;2.90;99.90;;;;;;5052978;28;20558;-55
2021/12/08 05:25:01;;;;;;;7.75;3.13;;;2.70;99.90;;;;;;5052804;28;20029;-54
2021/12/08 05:27:33;;;;;;;6.15;2.95;;;2.60;99.90;;;;;;5052975;28;20104;-58
2021/12/08 05:30:01;;;;;;;6.65;2.92;;;2.70;99.90;;;;;;5051776;28;20029;-58
2021/12/08 05:32:27;;;;;;;6.85;3.30;;;2.50;99.90;;;;;;5052332;28;20028;-54
2021/12/08 05:34:52;;;;;;;7.15;3.00;;;2.40;99.90;;;;;;5052943;28;20116;-55
2021/12/08 05:37:21;;;;;;;5.72;3.10;;;2.50;99.90;;;;;;5052001;28;20057;-57
2021/12/08 05:39:47;;;;;;;5.30;3.10;;;2.60;99.90;;;;;;5052783;28;20019;-55
2021/12/08 05:42:18;;;;;;;8.00;2.90;;;2.60;99.90;;;;;;5053035;28;20036;-57
2021/12/08 05:44:43;;;;;;;7.50;2.88;;;2.60;99.90;;;;;;5051400;28;20021;-58
2021/12/08 05:47:19;;;;;;;9.38;3.05;;;2.60;99.90;;;;;;5051589;28;20022;-58
2021/12/08 05:49:46;;;;;;;6.07;2.90;;;2.70;99.90;;;;;;5053361;28;20036;-58
2021/12/08 05:52:12;;;;;;;6.20;2.65;;;2.70;99.90;;;;;;5051761;28;20050;-57
2021/12/08 05:54:42;;;;;;;4.93;2.88;;;2.60;99.90;;;;;;5052859;28;20029;-58
2021/12/08 05:57:33;;;;;;;5.35;3.22;;;2.70;99.90;;;;;;5051401;28;20029;-57
2021/12/08 05:59:58;;;;;;;8.18;3.22;;;2.80;99.90;;;;;;5052778;28;20045;-58
2021/12/08 06:02:28;;;;;;;4.88;2.50;;;2.90;99.90;;;;;;5052594;28;20013;-56
2021/12/08 06:04:54;;;;;;;5.50;3.10;;;3.00;99.90;;;;;;5051749;28;20032;-55
2021/12/08 06:07:22;;;;;;;5.22;3.03;;;3.20;99.90;;;;;;5051390;28;20021;-56
2021/12/08 06:09:53;;;;;;;12.60;2.85;;;3.10;99.90;;;;;;5052519;28;20032;-58
2021/12/08 06:12:19;;;;;;;4.78;2.95;;;3.10;99.90;;;;;;5052592;28;20025;-58
2021/12/08 06:14:45;;;;;;;6.22;2.38;;;3.10;99.90;;;;;;5052386;28;20029;-56
2021/12/08 06:17:18;;;;;;;5.45;3.10;;;3.00;99.90;;;;;;5051562;28;20032;-57
2021/12/08 06:19:45;;;;;;;3.42;2.03;;;3.10;99.90;;;;;;5054830;28;20013;-57
2021/12/08 06:22:12;;;;;;;3.38;2.15;;;3.20;99.90;;;;;;5055167;28;20025;-58
2021/12/08 06:24:39;;;;;;;5.95;2.70;;;3.40;99.90;;;;;;5054739;28;20026;-57
2021/12/08 06:27:05;;;;;;;5.10;2.60;;;3.30;99.90;;;;;;5054684;28;20095;-58
2021/12/08 06:29:31;;;;;;;5.75;2.42;;;3.40;99.90;;;;;;5054883;28;20021;-57
2021/12/08 06:32:00;;;;;;;4.45;2.40;;;3.30;99.90;;;;;;5055834;28;20078;-56
2021/12/08 06:34:26;;;;;;;4.75;2.47;;;3.40;99.90;;;;;;5054457;28;20074;-58
2021/12/08 06:37:00;;;;;;;6.15;2.97;;;3.30;99.90;;;;;;5054359;28;20027;-56
2021/12/08 06:39:39;;;;;;;8.82;3.03;;;3.20;99.90;;;;;;5055097;28;20025;-58
2021/12/08 06:42:13;;;;;;;3.85;2.20;;;3.30;99.90;;;;;;5055429;28;20025;-54
2021/12/08 06:44:45;;;;;;;10.82;2.30;;;3.50;99.90;;;;;;5054470;28;20025;-51
2021/12/08 06:47:16;;;;;;;6.05;2.92;;;3.50;99.90;;;;;;5054899;28;20025;-52
2021/12/08 06:49:45;;;;;;;5.50;2.90;;;3.40;99.90;;;;;;5056081;28;20045;-48
2021/12/08 06:52:17;;;;;;;6.82;2.53;;;3.40;99.90;;;;;;5054730;28;20048;-56
2021/12/08 06:55:00;;;;;;;4.88;2.60;;;3.40;99.90;;;;;;5055668;28;20029;-58
2021/12/08 06:57:50;;;;;;;6.10;2.60;;;3.30;99.90;;;;;;5055465;28;20107;-58
2021/12/08 07:00:23;;;;;;;4.90;2.70;;;3.30;99.90;;;;;;5054062;28;20117;-58
2021/12/08 07:03:44;;;;;;;7.22;2.97;;;3.50;99.90;;;;;;5054879;28;20028;-54
2021/12/08 07:08:28;;;;;;;6.18;3.45;;;3.60;99.90;;;;;;5055740;28;20075;-57
2021/12/08 07:10:56;;;;;;;6.07;2.35;;;3.60;99.90;;;;;;5055139;28;20025;-57
2021/12/08 07:13:25;;;;;;;5.68;2.55;;;3.60;99.90;;;;;;5055010;28;20021;-53
2021/12/08 07:15:51;;;;;;;5.70;2.28;;;3.60;99.90;;;;;;5054014;28;20031;-57
2021/12/08 07:18:25;;;;;;;2.63;1.83;;;3.60;99.90;;;;;;5055300;28;20096;-57
2021/12/08 07:20:56;;;;;;;3.63;2.42;;;3.60;99.90;;;;;;5055089;28;20047;-56
2021/12/08 07:23:38;;;;;;;5.45;2.67;;;3.70;99.90;;;;;;5054942;28;20032;-57
2021/12/08 07:26:24;;;;;;;;;;;3.70;99.90;;;;;;5054658;28;20063;-57
2021/12/08 07:28:51;;;;;;;4.03;2.42;;;3.80;99.90;;;;;;5055140;28;19905;-57
2021/12/08 07:31:26;;;;;;;4.18;2.72;;;3.80;99.90;;;;;;5054193;28;20108;-58
2021/12/08 07:33:53;;;;;;;10.23;2.92;;;3.70;99.90;;;;;;5054700;28;20372;-58
2021/12/08 07:36:21;;;;;;;6.13;2.88;;;3.70;99.90;;;;;;5053655;28;20029;-55
2021/12/08 07:38:52;;;;;;;7.25;3.35;;;3.70;99.90;;;;;;5053302;28;20017;-58
2021/12/08 07:41:48;;;;;;;5.18;2.75;;;3.60;99.90;;;;;;5053384;28;20025;-57
2021/12/08 07:44:16;;;;;;;6.63;3.78;;;3.40;99.90;;;;;;5052645;28;20029;-56
2021/12/08 07:47:00;;;;;;;6.05;3.13;;;3.40;99.90;;;;;;5053787;28;20027;-58
2021/12/08 07:49:33;;;;;;;8.70;3.30;;;3.40;99.90;;;;;;5054000;28;20032;-56
2021/12/08 07:52:13;;;;;;;11.32;3.22;;;3.40;99.90;;;;;;5053902;28;20111;-58
2021/12/08 07:54:41;;;;;;;8.80;2.65;;;3.30;99.90;;;;;;5052808;28;20044;-55
2021/12/08 07:57:11;;;;;;;4.72;2.90;;;3.40;99.90;;;;;;5054544;28;20023;-58
2021/12/08 07:59:41;;;;;;;6.97;3.30;;;3.50;99.90;;;;;;5052941;28;20391;-56
2021/12/08 08:02:08;;;;;;;9.00;3.42;;;3.50;99.90;;;;;;5052859;28;20048;-53
2021/12/08 08:04:37;;;;;;;6.90;3.03;;;3.40;99.90;;;;;;5053088;28;20021;-57
2021/12/08 08:07:05;;;;;;;7.85;3.50;;;3.40;99.90;;;;;;5054234;28;20027;-57
2021/12/08 08:09:38;;;;;;;5.60;3.28;;;3.40;99.90;;;;;;5053024;28;20040;-54
2021/12/08 08:12:07;;;;;;;5.60;3.15;;;3.60;99.90;;;;;;5052792;28;20031;-58
2021/12/08 08:14:39;;;;;;;6.30;2.88;;;3.60;99.90;;;;;;5053850;28;20029;-54
2021/12/08 08:17:13;;;;;;;6.47;3.13;;;3.60;99.90;;;;;;5053979;28;20027;-57
2021/12/08 08:19:45;;;;;;;6.60;3.25;;;3.60;99.90;;;;;;5052946;28;20471;-57
2021/12/08 08:22:16;;;;;;;4.90;3.08;;;3.60;99.90;;;;;;5052616;28;20024;-57
2021/12/08 08:24:42;;;;;;;8.40;4.40;;;3.60;99.90;;;;;;5052450;28;20031;-58
2021/12/08 08:27:10;;;;;;;10.75;4.32;;;3.50;99.90;;;;;;5052428;28;20112;-58
2021/12/08 08:29:37;;;;;;;7.32;3.83;;;3.50;99.90;;;;;;5052720;28;20388;-58
2021/12/08 08:32:19;;;;;;;5.57;3.35;;;3.60;99.90;;;;;;5052694;28;20021;-54
2021/12/08 08:34:50;;;;;;;7.63;3.22;;;3.70;99.90;;;;;;5053472;28;20422;-55
2021/12/08 08:37:18;;;;;;;7.63;3.37;;;3.90;99.90;;;;;;5052402;28;20059;-58
2021/12/08 08:39:50;;;;;;;6.03;3.15;;;3.90;99.90;;;;;;5052580;28;20020;-55
2021/12/08 08:42:17;;;;;;;;;;;3.80;99.90;;;;;;5053738;28;20021;-56
2021/12/08 08:44:46;;;;;;;8.38;2.85;;;3.70;99.90;;;;;;5052956;28;19912;-57
2021/12/08 08:47:19;;;;;;;5.07;2.80;;;3.60;99.90;;;;;;5052186;28;20025;-55
2021/12/08 08:49:46;;;;;;;6.47;3.47;;;3.70;99.90;;;;;;5053708;28;20028;-56
2021/12/08 08:52:25;;;;;;;8.43;3.35;;;3.70;99.90;;;;;;5052087;28;20025;-58
2021/12/08 08:54:53;;;;;;;3.75;2.47;;;3.80;99.90;;;;;;5053131;28;20060;-57
2021/12/08 08:57:30;;;;;;;6.95;2.80;;;3.80;99.90;;;;;;5053307;28;20102;-54
2021/12/08 09:00:04;;;;;;;5.30;2.83;;;3.90;99.90;;;;;;5053395;28;20079;-56
2021/12/08 09:02:38;;;;;;;7.00;2.45;;;3.90;99.90;;;;;;5051906;28;20021;-55
2021/12/08 09:05:30;;;;;;;8.40;3.90;;;4.00;99.90;;;;;;5052812;28;20025;-52
2021/12/08 09:07:58;;;;;;;5.90;2.35;;;3.90;99.90;;;;;;5049031;28;20457;-56
2021/12/08 09:10:30;;;;;;;5.65;2.70;;;4.00;99.90;;;;;;5053747;28;20025;-55
2021/12/08 09:13:30;;;;;;;6.40;2.90;;;4.10;99.90;;;;;;5053166;28;20029;-57
2021/12/08 09:16:01;;;;;;;5.32;3.00;;;4.10;99.90;;;;;;5052252;28;20098;-58
2021/12/08 09:18:36;;;;;;;;;;;4.20;99.90;;;;;;5053157;28;20090;-57
2021/12/08 09:21:21;;;;;;;7.03;3.17;;;4.30;99.90;;;;;;5051901;28;20422;-56
2021/12/08 09:23:57;;;;;;;5.55;2.60;;;4.40;99.90;;;;;;5051755;28;20188;-58
2021/12/08 09:26:25;;;;;;;6.70;3.10;;;4.50;99.90;;;;;;5052905;28;20032;-58
2021/12/08 09:29:01;;;;;;;10.10;3.22;;;4.40;99.90;;;;;;5053089;28;20029;-58
2021/12/08 09:31:32;;;;;;;4.60;2.63;;;4.40;99.90;;;;;;5052092;28;20082;-53
2021/12/08 09:34:09;;;;;;;5.75;2.40;;;4.60;99.90;;;;;;5051733;28;20056;-56
2021/12/08 09:36:39;;;;;;;7.43;2.90;;;4.70;99.90;;;;;;5052493;28;20025;-57
2021/12/08 09:39:25;;;;;;;6.20;2.72;;;4.90;99.90;;;;;;5052508;28;20017;-56
2021/12/08 09:42:17;;;;;;;5.28;2.47;;;5.20;99.90;;;;;;5047869;28;20090;-58
2021/12/08 09:44:49;;;;;;;4.95;2.97;;;5.10;99.90;;;;;;5048972;28;20061;-54
2021/12/08 09:47:16;;;;;;;6.43;2.83;;;4.90;99.90;;;;;;5051667;28;20415;-53
2021/12/08 09:49:47;;;;;;;7.07;3.20;;;5.00;99.90;;;;;;5052892;28;20087;-54
2021/12/08 09:52:14;;;;;;;5.28;2.90;;;5.00;99.90;;;;;;5051621;28;20089;-53
2021/12/08 09:54:41;;;;;;;10.63;3.30;;;5.00;99.90;;;;;;5054800;28;20072;-52
2021/12/08 09:57:12;;;;;;;4.65;2.83;;;5.00;99.90;;;;;;5056343;28;20029;-52
2021/12/08 09:59:45;;;;;;;4.28;2.85;;;5.00;99.90;;;;;;5056565;28;20483;-57
2021/12/08 10:02:13;;;;;;;5.35;2.50;;;5.00;99.90;;;;;;5056523;28;20017;-55
2021/12/08 10:04:39;;;;;;;8.15;3.42;;;5.10;99.90;;;;;;5055330;28;20025;-56
2021/12/08 10:07:06;;;;;;;6.28;3.13;;;5.10;99.90;;;;;;5056372;28;20028;-57
2021/12/08 10:09:32;;;;;;;5.43;2.70;;;5.20;99.90;;;;;;5056291;28;20460;-53
2021/12/08 10:11:58;;;;;;;4.05;2.65;;;5.20;99.90;;;;;;5055001;28;20018;-52
2021/12/08 10:14:24;;;;;;;3.92;3.33;;;5.30;99.90;;;;;;5055190;28;20067;-51
2021/12/08 10:16:52;;;;;;;6.65;3.25;;;5.30;99.90;;;;;;5056104;28;20032;-54
2021/12/08 10:19:18;;;;;;;9.48;4.07;;;5.30;99.90;;;;;;5056176;28;20017;-56
2021/12/08 10:21:46;;;;;;;6.72;3.90;;;5.20;99.90;;;;;;5055405;28;20064;-51
2021/12/08 10:24:15;;;;;;;5.85;3.00;;;5.10;99.90;;;;;;5055111;28;20127;-55
2021/12/08 10:26:41;;;;;;;6.63;3.88;;;5.10;99.90;;;;;;5054738;28;20021;-52
2021/12/08 10:29:07;;;;;;;6.55;3.85;;;5.10;99.90;;;;;;5056194;28;20048;-52
2021/12/08 10:31:40;;;;;;;8.27;4.10;;;5.20;99.90;;;;;;5055862;28;20379;-55
2021/12/08 10:36:55;;;;;;;8.48;3.60;;;5.20;99.90;;;;;;5056147;28;20036;-51
2021/12/08 10:39:35;;;;;;;7.88;4.00;;;5.10;99.90;;;;;;5056057;28;20041;-56
2021/12/08 10:42:22;;;;;;;11.95;4.60;;;5.10;99.90;;;;;;5054430;28;20052;-52
2021/12/08 10:47:44;;;;;;;7.80;3.97;;;5.20;99.90;;;;;;5056241;28;20027;-52
2021/12/08 10:56:08;;;;;;;13.05;4.95;;;5.30;99.90;;;;;;5055372;28;20032;-52
2021/12/08 10:58:39;;;;;;;7.85;4.45;;;5.60;99.90;;;;;;5055616;28;20032;-55
2021/12/08 11:01:18;;;;;;;8.15;4.05;;;5.80;99.90;;;;;;5054211;28;20021;-50
2021/12/08 11:03:46;;;;;;;14.07;5.05;;;5.90;99.90;;;;;;5054869;28;20123;-56
2021/12/08 11:06:15;;;;;;;11.88;5.47;;;6.10;99.90;;;;;;5053855;28;20025;-52
2021/12/08 11:08:47;;;;;;;15.63;5.30;;;6.00;99.90;;;;;;5054273;28;20025;-52
2021/12/08 11:11:29;;;;;;;11.20;4.95;;;5.90;99.90;;;;;;5055206;28;20060;-52
2021/12/08 11:13:56;;;;;;;;;;;6.00;99.90;;;;;;5055080;28;20035;-58
2021/12/08 11:16:43;;;;;;;13.70;6.50;;;6.00;99.90;;;;;;5053734;28;20286;-53
2021/12/08 11:19:13;;;;;;;13.98;5.65;;;5.90;99.90;;;;;;5053754;28;20098;-55
2021/12/08 11:21:46;;;;;;;11.98;5.63;;;6.00;99.90;;;;;;5053688;28;20027;-52
2021/12/08 11:24:34;;;;;;;11.48;5.82;;;6.20;99.90;;;;;;5053699;28;20025;-50
2021/12/08 11:27:02;;;;;;;15.43;6.28;;;6.40;99.90;;;;;;5053680;28;20025;-53
2021/12/08 11:29:31;;;;;;;14.85;6.93;;;6.40;99.90;;;;;;5054749;28;20070;-53
2021/12/08 11:32:08;;;;;;;12.38;5.57;;;6.40;99.90;;;;;;5053527;28;20025;-50
2021/12/08 11:34:41;;;;;;;16.20;6.80;;;6.50;99.90;;;;;;5053432;28;20025;-57
2021/12/08 11:37:14;;;;;;;18.27;6.78;;;6.30;99.90;;;;;;5053184;28;20028;-55
2021/12/08 11:39:48;;;;;;;14.02;6.35;;;6.10;99.90;;;;;;5055170;28;20081;-54
2021/12/08 11:42:17;;;;;;;18.35;7.07;;;6.00;99.90;;;;;;5053080;28;20087;-58
2021/12/08 11:44:46;;;;;;;12.77;6.75;;;6.10;99.90;;;;;;5054420;28;20024;-59
2021/12/08 11:47:20;;;;;;;15.48;6.38;;;6.10;99.90;;;;;;5054503;28;20029;-54
2021/12/08 11:49:56;;;;;;;17.60;7.20;;;6.00;99.90;;;;;;5054123;28;20025;-55
2021/12/08 11:52:26;;;;;;;17.23;6.97;;;6.00;99.90;;;;;;5054422;28;20028;-59
2021/12/08 11:55:16;;;;;;;16.05;6.82;;;6.00;99.90;;;;;;5054124;28;20063;-57
2021/12/08 11:57:51;;;;;;;16.80;6.75;;;6.00;99.90;;;;;;5050383;28;20060;-55
2021/12/08 12:00:28;;;;;;;17.75;6.65;;;5.80;99.90;;;;;;5054244;28;20038;-53
2021/12/08 12:03:01;;;;;;;18.52;8.10;;;5.50;99.90;;;;;;5053974;28;20032;-57
2021/12/08 12:05:33;;;;;;;14.88;7.60;;;5.40;99.90;;;;;;5054057;28;20567;-56
2021/12/08 12:08:00;;;;;;;17.15;7.38;;;5.50;99.90;;;;;;5053145;28;20052;-55
2021/12/08 12:10:32;;;;;;;27.38;9.63;;;5.60;99.90;;;;;;5052769;28;20035;-55
2021/12/08 12:12:59;;;;;;;21.67;8.68;;;5.60;99.90;;;;;;5052610;28;20036;-56
2021/12/08 12:15:25;;;;;;;20.50;8.20;;;5.70;99.90;;;;;;5053831;28;20025;-55
2021/12/08 12:17:52;;;;;;;16.80;6.70;;;5.90;99.90;;;;;;5052157;28;20537;-55
2021/12/08 12:20:42;;;;;;;20.20;7.78;;;6.00;99.90;;;;;;5053047;28;20115;-55
2021/12/08 12:23:21;;;;;;;17.77;7.97;;;6.10;99.90;;;;;;5053877;28;20031;-52
2021/12/08 12:25:59;;;;;;;21.15;8.55;;;6.10;99.90;;;;;;5053775;28;20029;-56
2021/12/08 12:28:49;;;;;;;19.17;8.32;;;6.00;99.90;;;;;;5053757;28;20479;-55
2021/12/08 12:31:27;;;;;;;19.00;8.57;;;5.90;99.90;;;;;;5052536;28;20021;-53
2021/12/08 12:33:53;;;;;;;20.38;9.70;;;5.90;99.90;;;;;;5052392;28;20025;-50
2021/12/08 12:36:33;;;;;;;19.60;9.10;;;5.80;99.90;;;;;;5053563;28;20085;-54
2021/12/08 12:39:20;;;;;;;17.58;7.88;;;5.80;99.90;;;;;;5052339;28;20021;-55
2021/12/08 12:42:15;;;;;;;17.33;7.57;;;5.80;99.90;;;;;;5054396;28;20021;-58
2021/12/08 12:44:57;;;;;;;18.58;8.05;;;5.80;99.90;;;;;;5050088;28;20036;-54
2021/12/08 12:47:24;;;;;;;;;;;5.80;99.90;;;;;;5054124;28;20092;-55
2021/12/08 12:50:11;;;;;;;16.52;7.88;;;5.90;99.90;;;;;;5052150;28;20010;-54
2021/12/08 12:52:47;;;;;;;16.00;7.95;;;6.20;99.90;;;;;;5053860;28;20029;-58
2021/12/08 12:55:31;;;;;;;21.85;8.63;;;6.20;99.90;;;;;;5053221;28;20033;-54
2021/12/08 12:58:05;;;;;;;17.88;8.68;;;6.20;99.90;;;;;;5053379;28;20060;-53
2021/12/08 13:00:41;;;;;;;21.27;9.65;;;6.20;99.90;;;;;;5053285;28;20075;-55
2021/12/08 13:03:07;;;;;;;24.45;9.20;;;6.10;99.90;;;;;;5052008;28;20025;-53
2021/12/08 13:05:50;;;;;;;19.65;9.43;;;6.00;99.90;;;;;;5053255;28;20035;-54
2021/12/08 13:08:38;;;;;;;21.30;9.57;;;6.10;99.90;;;;;;5053123;28;20021;-57
2021/12/08 13:11:34;;;;;;;16.30;8.00;;;6.20;99.90;;;;;;5053488;28;20025;-56
2021/12/08 13:14:03;;;;;;;18.77;8.00;;;6.40;99.90;;;;;;5053102;28;20025;-54
2021/12/08 13:16:35;;;;;;;19.70;9.10;;;6.50;99.90;;;;;;5053026;28;20031;-55
2021/12/08 13:19:06;;;;;;;18.65;7.85;;;6.50;99.90;;;;;;5051836;28;20037;-58
2021/12/08 13:21:49;;;;;;;17.65;7.50;;;6.20;99.90;;;;;;5051888;28;20025;-53
2021/12/08 13:24:38;;;;;;;16.90;7.43;;;6.30;99.90;;;;;;5051673;28;20051;-52
2021/12/08 13:27:10;;;;;;;19.50;8.90;;;6.20;99.90;;;;;;5053109;28;20055;-54
2021/12/08 13:29:41;;;;;;;14.85;7.50;;;6.10;99.90;;;;;;5056523;28;20098;-53
2021/12/08 13:32:13;;;;;;;17.67;6.80;;;6.00;99.90;;;;;;5056426;28;20029;-56
2021/12/08 13:34:42;;;;;;;18.88;8.65;;;5.90;99.90;;;;;;5055676;28;20278;-50
2021/12/08 13:37:23;;;;;;;20.52;8.82;;;6.00;99.90;;;;;;5055623;28;20029;-57
2021/12/08 13:39:51;;;;;;;14.23;7.18;;;6.30;99.90;;;;;;5055722;28;20025;-53
2021/12/08 13:42:33;;;;;;;19.10;8.32;;;6.50;99.90;;;;;;5057155;28;20029;-51
2021/12/08 13:45:01;;;;;;;;;;;6.50;99.90;;;;;;5055935;28;20017;-53
2021/12/08 13:47:35;;;;;;;17.33;8.13;;;6.40;99.90;;;;;;5055474;28;19916;-55
2021/12/08 13:50:08;;;;;;;17.65;8.18;;;6.50;99.90;;;;;;5056723;28;20025;-54
2021/12/08 13:52:37;;;;;;;18.80;8.95;;;6.40;99.90;;;;;;5056253;28;20056;-56
2021/12/08 13:55:08;;;;;;;24.80;8.90;;;6.30;99.90;;;;;;5056361;28;20430;-54
2021/12/08 13:57:37;;;;;;;16.42;8.57;;;6.20;99.90;;;;;;5055294;28;20044;-50
2021/12/08 14:00:09;;;;;;;22.90;8.30;;;6.10;99.90;;;;;;5055667;28;20057;-53